Accueil
METAR-TAF:

METAR-TAF

Aéroports :

Colonel James Jabara Airport

Wichita, Kansas, États-Unis

latitude: 37-44-59N, longitude: 097-13-08W, altitude: 432 m

Observation

Le bulletin a été fait il y a 50 minutes, à 22:54 UTC
Vent 18 kt de nord-ouest avec des rafales jusqu'à 31 kt
Température 30°C
Humidité 29%
Pression 1010 hPa
Visibilité: 16.1 km
Quelques nuages à une hauteur de 8000 ft

METAR: KAAO 212254Z AUTO 31018G31KT 10SM FEW080 30/10 A2983 RMK AO2 PK WND 32036/2235 SLP090 T03000100

Heure: 18:44 (23:44 UTC)


TAF: absent

Observations et prévisions météorologiques de plus de 4000 aéroports (messages METAR et TAF).

Les stations disponibles sont représentées par des disques jaunes et rouges sur la carte.

Passer la souris dessus pour voir le nom de la station.

Cliquer dessus pour voir les observations et prévisions météorologiques.

Pour changer de carte: cliquez sur les boutons verts avec une croix noire pour zoomer, sur le bouton vert avec un tiret pour effectuer un zoom arrière, ou sur les flèches vertes pour les cartes adjacentes.


METAR-TAF: